Terminal Aerodrome Forecast
Issued by NWS

Home | Current Version | Previous Version | Graphics & Text | Print | Product List | Glossary On
Versions: 1 2 3 4 5 6 7 8 9 10 11 12 13 14 15 16 17 18 19 20 21 22
000
FTUS42 KMHX 162300
TAFOAJ
TAF
KOAJ 162338Z 1700/1724 04010KT P6SM SKC
     FM170800 02007KT P6SM BKN025
     FM171400 04015G20KT P6SM OVC035
      AMD LTD TO CLD VIS AND WIND=

USA.gov is the U.S. government's official web portal to all federal, state and local government web resources and services.